sensor_id;sensor_type;location;lat;lon;timestamp;P1;durP1;ratioP1;P2;durP2;ratioP2
51612;SDS011;37694;51.748;14.326;2022-10-01T00:00:32;7.15;;;5.40;;
51612;SDS011;37694;51.748;14.326;2022-10-01T00:02:58;8.43;;;4.90;;
51612;SDS011;37694;51.748;14.326;2022-10-01T00:05:24;7.63;;;6.00;;
51612;SDS011;37694;51.748;14.326;2022-10-01T00:07:50;5.57;;;4.57;;
51612;SDS011;37694;51.748;14.326;2022-10-01T00:10:15;6.72;;;5.22;;
51612;SDS011;37694;51.748;14.326;2022-10-01T00:12:42;5.45;;;4.70;;
51612;SDS011;37694;51.748;14.326;2022-10-01T00:15:11;5.88;;;4.93;;
51612;SDS011;37694;51.748;14.326;2022-10-01T00:17:38;6.50;;;5.43;;
51612;SDS011;37694;51.748;14.326;2022-10-01T00:20:04;5.97;;;4.80;;
51612;SDS011;37694;51.748;14.326;2022-10-01T00:22:31;5.60;;;4.65;;
51612;SDS011;37694;51.748;14.326;2022-10-01T00:24:58;5.45;;;4.90;;
51612;SDS011;37694;51.748;14.326;2022-10-01T00:27:24;6.80;;;4.85;;
51612;SDS011;37694;51.748;14.326;2022-10-01T00:29:51;6.68;;;4.75;;
51612;SDS011;37694;51.748;14.326;2022-10-01T00:32:17;6.82;;;4.95;;
51612;SDS011;37694;51.748;14.326;2022-10-01T00:34:42;8.07;;;5.57;;
51612;SDS011;37694;51.748;14.326;2022-10-01T00:37:08;8.38;;;5.10;;
51612;SDS011;37694;51.748;14.326;2022-10-01T00:39:35;5.85;;;4.60;;
51612;SDS011;37694;51.748;14.326;2022-10-01T00:42:01;7.70;;;5.13;;
51612;SDS011;37694;51.748;14.326;2022-10-01T00:44:33;7.60;;;5.80;;
51612;SDS011;37694;51.748;14.326;2022-10-01T00:49:38;5.32;;;4.82;;
51612;SDS011;37694;51.748;14.326;2022-10-01T00:52:07;8.07;;;5.05;;
51612;SDS011;37694;51.748;14.326;2022-10-01T00:54:45;5.80;;;4.68;;
51612;SDS011;37694;51.748;14.326;2022-10-01T00:57:15;6.57;;;5.22;;
51612;SDS011;37694;51.748;14.326;2022-10-01T00:59:44;5.93;;;4.88;;
51612;SDS011;37694;51.748;14.326;2022-10-01T01:02:11;6.03;;;5.35;;
51612;SDS011;37694;51.748;14.326;2022-10-01T01:04:37;6.90;;;4.97;;
51612;SDS011;37694;51.748;14.326;2022-10-01T01:07:06;6.45;;;4.90;;
51612;SDS011;37694;51.748;14.326;2022-10-01T01:09:34;6.75;;;5.50;;
51612;SDS011;37694;51.748;14.326;2022-10-01T01:26:15;5.88;;;4.72;;
51612;SDS011;37694;51.748;14.326;2022-10-01T01:29:19;5.30;;;4.78;;
51612;SDS011;37694;51.748;14.326;2022-10-01T01:31:51;7.40;;;5.43;;
51612;SDS011;37694;51.748;14.326;2022-10-01T01:34:23;6.05;;;4.97;;
51612;SDS011;37694;51.748;14.326;2022-10-01T01:36:55;5.80;;;4.75;;
51612;SDS011;37694;51.748;14.326;2022-10-01T01:39:26;7.03;;;4.80;;
51612;SDS011;37694;51.748;14.326;2022-10-01T01:41:57;5.18;;;4.70;;
51612;SDS011;37694;51.748;14.326;2022-10-01T01:44:28;6.22;;;5.00;;
51612;SDS011;37694;51.748;14.326;2022-10-01T01:47:02;5.47;;;4.55;;
51612;SDS011;37694;51.748;14.326;2022-10-01T01:49:31;7.22;;;5.05;;
51612;SDS011;37694;51.748;14.326;2022-10-01T01:54:34;7.43;;;4.65;;
51612;SDS011;37694;51.748;14.326;2022-10-01T01:57:00;10.38;;;5.22;;
51612;SDS011;37694;51.748;14.326;2022-10-01T01:59:28;5.05;;;4.55;;
51612;SDS011;37694;51.748;14.326;2022-10-01T02:01:57;8.10;;;4.90;;
51612;SDS011;37694;51.748;14.326;2022-10-01T02:04:28;5.63;;;4.88;;
51612;SDS011;37694;51.748;14.326;2022-10-01T02:09:58;5.60;;;4.70;;
51612;SDS011;37694;51.748;14.326;2022-10-01T02:15:24;8.23;;;5.15;;
51612;SDS011;37694;51.748;14.326;2022-10-01T02:23:16;6.13;;;4.43;;
51612;SDS011;37694;51.748;14.326;2022-10-01T02:25:50;5.13;;;4.63;;
51612;SDS011;37694;51.748;14.326;2022-10-01T02:28:21;4.88;;;4.38;;
51612;SDS011;37694;51.748;14.326;2022-10-01T02:30:47;4.93;;;4.28;;
51612;SDS011;37694;51.748;14.326;2022-10-01T02:33:16;6.03;;;4.90;;
51612;SDS011;37694;51.748;14.326;2022-10-01T02:35:46;5.15;;;4.65;;
51612;SDS011;37694;51.748;14.326;2022-10-01T02:38:14;6.43;;;4.63;;
51612;SDS011;37694;51.748;14.326;2022-10-01T02:40:41;4.80;;;4.30;;
51612;SDS011;37694;51.748;14.326;2022-10-01T02:43:27;7.85;;;4.68;;
51612;SDS011;37694;51.748;14.326;2022-10-01T02:45:58;7.78;;;4.90;;
51612;SDS011;37694;51.748;14.326;2022-10-01T02:48:29;6.18;;;4.93;;
51612;SDS011;37694;51.748;14.326;2022-10-01T02:51:02;6.00;;;4.55;;
51612;SDS011;37694;51.748;14.326;2022-10-01T02:53:39;4.43;;;4.03;;
51612;SDS011;37694;51.748;14.326;2022-10-01T02:56:08;5.43;;;4.93;;
51612;SDS011;37694;51.748;14.326;2022-10-01T02:58:35;5.20;;;4.25;;
51612;SDS011;37694;51.748;14.326;2022-10-01T03:01:01;4.45;;;4.05;;
51612;SDS011;37694;51.748;14.326;2022-10-01T03:03:27;6.88;;;5.28;;
51612;SDS011;37694;51.748;14.326;2022-10-01T03:05:55;4.32;;;3.92;;
51612;SDS011;37694;51.748;14.326;2022-10-01T03:08:20;7.50;;;4.38;;
51612;SDS011;37694;51.748;14.326;2022-10-01T03:10:46;4.82;;;4.43;;
51612;SDS011;37694;51.748;14.326;2022-10-01T03:13:11;5.93;;;4.70;;
51612;SDS011;37694;51.748;14.326;2022-10-01T03:15:37;6.82;;;4.85;;
51612;SDS011;37694;51.748;14.326;2022-10-01T03:18:06;5.15;;;4.32;;
51612;SDS011;37694;51.748;14.326;2022-10-01T03:20:31;4.70;;;4.30;;
51612;SDS011;37694;51.748;14.326;2022-10-01T03:22:57;9.77;;;5.05;;
51612;SDS011;37694;51.748;14.326;2022-10-01T03:25:23;6.07;;;4.53;;
51612;SDS011;37694;51.748;14.326;2022-10-01T03:27:48;5.28;;;4.22;;
51612;SDS011;37694;51.748;14.326;2022-10-01T03:30:14;4.30;;;3.80;;
51612;SDS011;37694;51.748;14.326;2022-10-01T03:32:39;4.82;;;4.32;;
51612;SDS011;37694;51.748;14.326;2022-10-01T03:35:05;4.55;;;4.15;;
51612;SDS011;37694;51.748;14.326;2022-10-01T03:37:31;6.28;;;4.30;;
51612;SDS011;37694;51.748;14.326;2022-10-01T03:39:57;4.95;;;4.43;;
51612;SDS011;37694;51.748;14.326;2022-10-01T03:42:22;5.20;;;4.28;;
51612;SDS011;37694;51.748;14.326;2022-10-01T03:44:48;4.18;;;3.78;;
51612;SDS011;37694;51.748;14.326;2022-10-01T03:47:13;4.40;;;4.00;;
51612;SDS011;37694;51.748;14.326;2022-10-01T03:49:39;6.13;;;4.60;;
51612;SDS011;37694;51.748;14.326;2022-10-01T03:52:04;6.13;;;4.35;;
51612;SDS011;37694;51.748;14.326;2022-10-01T03:54:31;5.20;;;3.97;;
51612;SDS011;37694;51.748;14.326;2022-10-01T03:56:57;4.20;;;3.80;;
51612;SDS011;37694;51.748;14.326;2022-10-01T03:59:22;5.05;;;4.30;;
51612;SDS011;37694;51.748;14.326;2022-10-01T04:01:49;5.45;;;4.15;;
51612;SDS011;37694;51.748;14.326;2022-10-01T04:04:14;5.28;;;4.30;;
51612;SDS011;37694;51.748;14.326;2022-10-01T04:06:40;4.95;;;4.45;;
51612;SDS011;37694;51.748;14.326;2022-10-01T04:09:06;7.35;;;4.07;;
51612;SDS011;37694;51.748;14.326;2022-10-01T04:11:33;5.80;;;3.78;;
51612;SDS011;37694;51.748;14.326;2022-10-01T04:14:00;4.53;;;4.13;;
51612;SDS011;37694;51.748;14.326;2022-10-01T04:16:25;4.55;;;3.65;;
51612;SDS011;37694;51.748;14.326;2022-10-01T04:18:51;5.13;;;4.15;;
51612;SDS011;37694;51.748;14.326;2022-10-01T04:21:17;4.20;;;3.80;;
51612;SDS011;37694;51.748;14.326;2022-10-01T04:23:43;4.22;;;3.83;;
51612;SDS011;37694;51.748;14.326;2022-10-01T04:26:08;4.57;;;4.00;;
51612;SDS011;37694;51.748;14.326;2022-10-01T04:28:34;4.47;;;4.05;;
51612;SDS011;37694;51.748;14.326;2022-10-01T04:31:00;4.60;;;4.03;;
51612;SDS011;37694;51.748;14.326;2022-10-01T04:33:44;4.57;;;4.07;;
51612;SDS011;37694;51.748;14.326;2022-10-01T04:36:10;5.50;;;3.78;;
51612;SDS011;37694;51.748;14.326;2022-10-01T04:38:36;4.13;;;3.72;;
51612;SDS011;37694;51.748;14.326;2022-10-01T04:41:02;4.47;;;3.45;;
51612;SDS011;37694;51.748;14.326;2022-10-01T04:43:27;4.22;;;3.83;;
51612;SDS011;37694;51.748;14.326;2022-10-01T04:45:53;4.82;;;4.35;;
51612;SDS011;37694;51.748;14.326;2022-10-01T04:48:18;3.63;;;3.30;;
51612;SDS011;37694;51.748;14.326;2022-10-01T04:50:44;4.30;;;3.90;;
51612;SDS011;37694;51.748;14.326;2022-10-01T04:53:10;3.42;;;3.13;;
51612;SDS011;37694;51.748;14.326;2022-10-01T04:55:35;5.72;;;4.25;;
51612;SDS011;37694;51.748;14.326;2022-10-01T04:58:01;4.35;;;3.67;;
51612;SDS011;37694;51.748;14.326;2022-10-01T05:00:27;5.18;;;3.80;;
51612;SDS011;37694;51.748;14.326;2022-10-01T05:02:53;4.32;;;3.92;;
51612;SDS011;37694;51.748;14.326;2022-10-01T05:05:21;5.22;;;3.53;;
51612;SDS011;37694;51.748;14.326;2022-10-01T05:07:48;15.68;;;3.83;;
51612;SDS011;37694;51.748;14.326;2022-10-01T05:10:18;4.95;;;3.70;;
51612;SDS011;37694;51.748;14.326;2022-10-01T05:12:45;6.90;;;4.28;;
51612;SDS011;37694;51.748;14.326;2022-10-01T05:15:12;6.05;;;3.78;;
51612;SDS011;37694;51.748;14.326;2022-10-01T05:17:38;4.55;;;3.80;;
51612;SDS011;37694;51.748;14.326;2022-10-01T05:20:04;4.80;;;3.78;;
51612;SDS011;37694;51.748;14.326;2022-10-01T05:22:31;4.93;;;4.28;;
51612;SDS011;37694;51.748;14.326;2022-10-01T05:24:57;8.07;;;3.90;;
51612;SDS011;37694;51.748;14.326;2022-10-01T05:27:27;8.52;;;3.63;;
51612;SDS011;37694;51.748;14.326;2022-10-01T05:29:54;5.00;;;3.70;;
51612;SDS011;37694;51.748;14.326;2022-10-01T05:32:21;4.43;;;3.63;;
51612;SDS011;37694;51.748;14.326;2022-10-01T05:34:47;3.53;;;3.22;;
51612;SDS011;37694;51.748;14.326;2022-10-01T05:37:13;5.72;;;3.92;;
51612;SDS011;37694;51.748;14.326;2022-10-01T05:39:38;7.75;;;3.72;;
51612;SDS011;37694;51.748;14.326;2022-10-01T05:42:04;4.80;;;3.97;;
51612;SDS011;37694;51.748;14.326;2022-10-01T05:44:30;4.28;;;3.55;;
51612;SDS011;37694;51.748;14.326;2022-10-01T05:47:02;4.38;;;3.45;;
51612;SDS011;37694;51.748;14.326;2022-10-01T05:49:31;4.95;;;3.95;;
51612;SDS011;37694;51.748;14.326;2022-10-01T05:51:57;7.50;;;3.42;;
51612;SDS011;37694;51.748;14.326;2022-10-01T05:54:24;5.40;;;3.85;;
51612;SDS011;37694;51.748;14.326;2022-10-01T05:56:51;3.92;;;3.53;;
51612;SDS011;37694;51.748;14.326;2022-10-01T05:59:17;4.35;;;3.22;;
51612;SDS011;37694;51.748;14.326;2022-10-01T06:01:43;4.80;;;3.42;;
51612;SDS011;37694;51.748;14.326;2022-10-01T06:04:08;3.58;;;3.20;;
51612;SDS011;37694;51.748;14.326;2022-10-01T06:06:34;6.03;;;3.75;;
51612;SDS011;37694;51.748;14.326;2022-10-01T06:09:00;6.30;;;3.65;;
51612;SDS011;37694;51.748;14.326;2022-10-01T06:11:25;7.53;;;3.70;;
51612;SDS011;37694;51.748;14.326;2022-10-01T06:13:51;3.80;;;3.40;;
51612;SDS011;37694;51.748;14.326;2022-10-01T06:16:17;12.93;;;3.40;;
51612;SDS011;37694;51.748;14.326;2022-10-01T06:18:45;12.48;;;3.17;;
51612;SDS011;37694;51.748;14.326;2022-10-01T06:21:11;4.78;;;3.08;;
51612;SDS011;37694;51.748;14.326;2022-10-01T06:23:37;6.70;;;3.80;;
51612;SDS011;37694;51.748;14.326;2022-10-01T06:26:03;5.50;;;4.00;;
51612;SDS011;37694;51.748;14.326;2022-10-01T06:28:32;6.10;;;3.25;;
51612;SDS011;37694;51.748;14.326;2022-10-01T06:31:01;3.40;;;3.15;;
51612;SDS011;37694;51.748;14.326;2022-10-01T06:33:27;3.65;;;3.35;;
51612;SDS011;37694;51.748;14.326;2022-10-01T06:35:53;4.85;;;3.25;;
51612;SDS011;37694;51.748;14.326;2022-10-01T06:38:20;7.38;;;2.80;;
51612;SDS011;37694;51.748;14.326;2022-10-01T06:41:04;6.32;;;3.65;;
51612;SDS011;37694;51.748;14.326;2022-10-01T06:43:31;4.55;;;2.90;;
51612;SDS011;37694;51.748;14.326;2022-10-01T06:45:59;3.60;;;3.25;;
51612;SDS011;37694;51.748;14.326;2022-10-01T06:48:26;3.38;;;3.08;;
51612;SDS011;37694;51.748;14.326;2022-10-01T06:50:55;8.23;;;3.15;;
51612;SDS011;37694;51.748;14.326;2022-10-01T06:53:21;4.88;;;3.78;;
51612;SDS011;37694;51.748;14.326;2022-10-01T06:55:46;3.75;;;3.13;;
51612;SDS011;37694;51.748;14.326;2022-10-01T07:00:46;5.95;;;2.97;;
51612;SDS011;37694;51.748;14.326;2022-10-01T07:03:19;6.78;;;3.10;;
51612;SDS011;37694;51.748;14.326;2022-10-01T07:05:45;7.65;;;3.55;;
51612;SDS011;37694;51.748;14.326;2022-10-01T07:08:12;6.40;;;4.07;;
51612;SDS011;37694;51.748;14.326;2022-10-01T07:10:38;5.82;;;2.72;;
51612;SDS011;37694;51.748;14.326;2022-10-01T07:13:05;3.40;;;3.00;;
51612;SDS011;37694;51.748;14.326;2022-10-01T07:15:35;8.77;;;3.00;;
51612;SDS011;37694;51.748;14.326;2022-10-01T07:18:01;6.20;;;3.88;;
51612;SDS011;37694;51.748;14.326;2022-10-01T07:20:28;3.63;;;3.30;;
51612;SDS011;37694;51.748;14.326;2022-10-01T07:22:57;4.75;;;3.17;;
51612;SDS011;37694;51.748;14.326;2022-10-01T07:25:24;4.63;;;3.30;;
51612;SDS011;37694;51.748;14.326;2022-10-01T07:27:55;7.50;;;2.78;;
51612;SDS011;37694;51.748;14.326;2022-10-01T07:30:21;4.07;;;3.17;;
51612;SDS011;37694;51.748;14.326;2022-10-01T07:32:48;5.85;;;3.17;;
51612;SDS011;37694;51.748;14.326;2022-10-01T07:35:13;3.67;;;2.88;;
51612;SDS011;37694;51.748;14.326;2022-10-01T07:37:40;3.95;;;2.58;;
51612;SDS011;37694;51.748;14.326;2022-10-01T07:40:06;5.70;;;3.17;;
51612;SDS011;37694;51.748;14.326;2022-10-01T07:42:32;3.85;;;2.80;;
51612;SDS011;37694;51.748;14.326;2022-10-01T07:44:59;8.60;;;3.28;;
51612;SDS011;37694;51.748;14.326;2022-10-01T07:47:25;6.60;;;3.05;;
51612;SDS011;37694;51.748;14.326;2022-10-01T07:49:51;5.90;;;2.78;;
51612;SDS011;37694;51.748;14.326;2022-10-01T07:52:16;5.20;;;2.78;;
51612;SDS011;37694;51.748;14.326;2022-10-01T07:54:42;5.15;;;2.47;;
51612;SDS011;37694;51.748;14.326;2022-10-01T07:57:08;3.13;;;2.83;;
51612;SDS011;37694;51.748;14.326;2022-10-01T07:59:33;4.90;;;3.13;;
51612;SDS011;37694;51.748;14.326;2022-10-01T08:01:59;4.18;;;2.40;;
51612;SDS011;37694;51.748;14.326;2022-10-01T08:04:24;10.43;;;2.72;;
51612;SDS011;37694;51.748;14.326;2022-10-01T08:07:09;11.88;;;2.95;;
51612;SDS011;37694;51.748;14.326;2022-10-01T08:09:34;17.83;;;3.03;;
51612;SDS011;37694;51.748;14.326;2022-10-01T08:12:00;6.22;;;2.97;;
51612;SDS011;37694;51.748;14.326;2022-10-01T08:14:26;7.82;;;2.97;;
51612;SDS011;37694;51.748;14.326;2022-10-01T08:16:55;9.60;;;2.63;;
51612;SDS011;37694;51.748;14.326;2022-10-01T08:19:21;10.57;;;3.38;;
51612;SDS011;37694;51.748;14.326;2022-10-01T08:21:47;6.60;;;3.00;;
51612;SDS011;37694;51.748;14.326;2022-10-01T08:24:12;6.95;;;3.13;;
51612;SDS011;37694;51.748;14.326;2022-10-01T08:26:38;8.68;;;2.75;;
51612;SDS011;37694;51.748;14.326;2022-10-01T08:29:03;11.23;;;3.42;;
51612;SDS011;37694;51.748;14.326;2022-10-01T08:31:29;18.85;;;3.90;;
51612;SDS011;37694;51.748;14.326;2022-10-01T08:33:55;20.52;;;3.17;;
51612;SDS011;37694;51.748;14.326;2022-10-01T08:36:21;19.92;;;2.95;;
51612;SDS011;37694;51.748;14.326;2022-10-01T08:38:47;17.35;;;3.40;;
51612;SDS011;37694;51.748;14.326;2022-10-01T08:41:25;16.35;;;3.75;;
51612;SDS011;37694;51.748;14.326;2022-10-01T08:44:17;15.18;;;2.90;;
51612;SDS011;37694;51.748;14.326;2022-10-01T08:46:51;11.68;;;3.40;;
51612;SDS011;37694;51.748;14.326;2022-10-01T08:49:26;9.60;;;2.72;;
51612;SDS011;37694;51.748;14.326;2022-10-01T08:51:57;12.75;;;3.25;;
51612;SDS011;37694;51.748;14.326;2022-10-01T08:54:48;18.67;;;3.20;;
51612;SDS011;37694;51.748;14.326;2022-10-01T08:57:21;12.70;;;3.10;;
51612;SDS011;37694;51.748;14.326;2022-10-01T08:59:52;10.00;;;2.80;;
51612;SDS011;37694;51.748;14.326;2022-10-01T09:02:25;12.73;;;2.97;;
51612;SDS011;37694;51.748;14.326;2022-10-01T09:04:57;12.77;;;2.60;;
51612;SDS011;37694;51.748;14.326;2022-10-01T09:21:02;6.22;;;2.20;;
51612;SDS011;37694;51.748;14.326;2022-10-01T09:23:39;8.45;;;2.58;;
51612;SDS011;37694;51.748;14.326;2022-10-01T09:26:18;8.48;;;3.20;;
51612;SDS011;37694;51.748;14.326;2022-10-01T09:28:44;5.05;;;2.75;;
51612;SDS011;37694;51.748;14.326;2022-10-01T09:31:20;5.22;;;2.28;;
51612;SDS011;37694;51.748;14.326;2022-10-01T09:34:12;7.38;;;2.80;;
51612;SDS011;37694;51.748;14.326;2022-10-01T09:36:41;5.32;;;2.10;;
51612;SDS011;37694;51.748;14.326;2022-10-01T09:39:19;8.80;;;2.60;;
51612;SDS011;37694;51.748;14.326;2022-10-01T09:41:47;10.75;;;2.97;;
51612;SDS011;37694;51.748;14.326;2022-10-01T09:44:17;8.55;;;2.60;;
51612;SDS011;37694;51.748;14.326;2022-10-01T09:46:50;8.68;;;2.70;;
51612;SDS011;37694;51.748;14.326;2022-10-01T09:49:37;8.07;;;2.83;;
51612;SDS011;37694;51.748;14.326;2022-10-01T09:52:24;11.52;;;2.53;;
51612;SDS011;37694;51.748;14.326;2022-10-01T09:54:58;10.68;;;2.85;;
51612;SDS011;37694;51.748;14.326;2022-10-01T09:57:45;7.15;;;2.63;;
51612;SDS011;37694;51.748;14.326;2022-10-01T10:00:17;3.00;;;2.40;;
51612;SDS011;37694;51.748;14.326;2022-10-01T10:02:45;7.38;;;3.20;;
51612;SDS011;37694;51.748;14.326;2022-10-01T10:05:16;10.88;;;2.60;;
51612;SDS011;37694;51.748;14.326;2022-10-01T10:07:53;15.80;;;3.15;;
51612;SDS011;37694;51.748;14.326;2022-10-01T10:10:27;7.82;;;3.42;;
51612;SDS011;37694;51.748;14.326;2022-10-01T10:15:35;13.77;;;3.33;;
51612;SDS011;37694;51.748;14.326;2022-10-01T10:18:06;9.68;;;2.80;;
51612;SDS011;37694;51.748;14.326;2022-10-01T10:20:40;13.38;;;3.35;;
51612;SDS011;37694;51.748;14.326;2022-10-01T10:23:13;10.95;;;2.88;;
51612;SDS011;37694;51.748;14.326;2022-10-01T10:25:40;6.40;;;3.50;;
51612;SDS011;37694;51.748;14.326;2022-10-01T10:28:17;7.03;;;3.53;;
51612;SDS011;37694;51.748;14.326;2022-10-01T10:30:44;9.32;;;3.00;;
51612;SDS011;37694;51.748;14.326;2022-10-01T10:33:11;7.88;;;3.45;;
51612;SDS011;37694;51.748;14.326;2022-10-01T10:35:38;12.80;;;3.67;;
51612;SDS011;37694;51.748;14.326;2022-10-01T10:38:04;7.80;;;2.95;;
51612;SDS011;37694;51.748;14.326;2022-10-01T10:40:41;8.15;;;3.17;;
51612;SDS011;37694;51.748;14.326;2022-10-01T10:43:12;15.90;;;3.45;;
51612;SDS011;37694;51.748;14.326;2022-10-01T10:45:45;15.38;;;3.10;;
51612;SDS011;37694;51.748;14.326;2022-10-01T10:48:13;20.15;;;4.35;;
51612;SDS011;37694;51.748;14.326;2022-10-01T10:50:42;50.53;;;9.05;;
51612;SDS011;37694;51.748;14.326;2022-10-01T10:56:01;57.25;;;8.52;;
51612;SDS011;37694;51.748;14.326;2022-10-01T10:58:34;64.22;;;10.57;;
51612;SDS011;37694;51.748;14.326;2022-10-01T11:01:11;63.70;;;9.93;;
51612;SDS011;37694;51.748;14.326;2022-10-01T11:03:43;37.90;;;7.77;;
51612;SDS011;37694;51.748;14.326;2022-10-01T11:06:17;40.10;;;7.20;;
51612;SDS011;37694;51.748;14.326;2022-10-01T11:08:44;36.03;;;7.28;;
51612;SDS011;37694;51.748;14.326;2022-10-01T11:20:20;18.45;;;5.47;;
51612;SDS011;37694;51.748;14.326;2022-10-01T11:23:05;14.07;;;3.83;;
51612;SDS011;37694;51.748;14.326;2022-10-01T11:31:07;15.43;;;3.05;;
51612;SDS011;37694;51.748;14.326;2022-10-01T11:33:38;8.20;;;2.63;;
51612;SDS011;37694;51.748;14.326;2022-10-01T11:39:19;5.55;;;2.53;;
51612;SDS011;37694;51.748;14.326;2022-10-01T11:41:51;7.65;;;2.30;;
51612;SDS011;37694;51.748;14.326;2022-10-01T11:44:30;4.43;;;1.77;;
51612;SDS011;37694;51.748;14.326;2022-10-01T11:47:24;4.15;;;1.48;;
51612;SDS011;37694;51.748;14.326;2022-10-01T12:06:29;1.20;;;1.10;;
51612;SDS011;37694;51.748;14.326;2022-10-01T12:09:22;3.85;;;1.35;;
51612;SDS011;37694;51.748;14.326;2022-10-01T12:12:04;1.25;;;0.60;;
51612;SDS011;37694;51.748;14.326;2022-10-01T12:14:36;1.13;;;0.90;;
51612;SDS011;37694;51.748;14.326;2022-10-01T12:17:27;0.60;;;0.60;;
51612;SDS011;37694;51.748;14.326;2022-10-01T12:20:02;1.02;;;0.70;;
51612;SDS011;37694;51.748;14.326;2022-10-01T12:22:36;0.73;;;0.73;;
51612;SDS011;37694;51.748;14.326;2022-10-01T12:25:03;1.38;;;0.50;;
51612;SDS011;37694;51.748;14.326;2022-10-01T12:30:17;0.45;;;0.45;;
51612;SDS011;37694;51.748;14.326;2022-10-01T12:35:43;4.25;;;0.93;;
51612;SDS011;37694;51.748;14.326;2022-10-01T12:52:20;1.55;;;1.30;;
51612;SDS011;37694;51.748;14.326;2022-10-01T12:55:16;4.93;;;1.13;;
51612;SDS011;37694;51.748;14.326;2022-10-01T12:58:11;2.17;;;1.08;;
51612;SDS011;37694;51.748;14.326;2022-10-01T13:00:48;2.92;;;1.10;;
51612;SDS011;37694;51.748;14.326;2022-10-01T13:14:01;12.80;;;1.65;;
51612;SDS011;37694;51.748;14.326;2022-10-01T13:16:30;9.07;;;1.98;;
51612;SDS011;37694;51.748;14.326;2022-10-01T13:19:10;11.05;;;1.85;;
51612;SDS011;37694;51.748;14.326;2022-10-01T13:24:09;10.05;;;1.25;;
51612;SDS011;37694;51.748;14.326;2022-10-01T13:32:26;15.13;;;1.80;;
51612;SDS011;37694;51.748;14.326;2022-10-01T13:34:55;8.82;;;1.50;;
51612;SDS011;37694;51.748;14.326;2022-10-01T13:39:54;15.98;;;1.40;;
51612;SDS011;37694;51.748;14.326;2022-10-01T13:42:30;8.38;;;1.40;;
51612;SDS011;37694;51.748;14.326;2022-10-01T13:45:24;8.93;;;1.98;;
51612;SDS011;37694;51.748;14.326;2022-10-01T13:47:50;5.90;;;1.95;;
51612;SDS011;37694;51.748;14.326;2022-10-01T13:50:17;8.00;;;1.52;;
51612;SDS011;37694;51.748;14.326;2022-10-01T13:52:48;10.07;;;2.08;;
51612;SDS011;37694;51.748;14.326;2022-10-01T13:55:23;11.57;;;1.55;;
51612;SDS011;37694;51.748;14.326;2022-10-01T13:58:18;5.43;;;1.35;;
51612;SDS011;37694;51.748;14.326;2022-10-01T14:00:52;8.52;;;1.48;;
51612;SDS011;37694;51.748;14.326;2022-10-01T14:05:57;4.38;;;1.40;;
51612;SDS011;37694;51.748;14.326;2022-10-01T14:08:27;9.02;;;1.75;;
51612;SDS011;37694;51.748;14.326;2022-10-01T14:11:00;4.35;;;1.80;;
51612;SDS011;37694;51.748;14.326;2022-10-01T14:13:51;12.55;;;2.53;;
51612;SDS011;37694;51.748;14.326;2022-10-01T14:16:42;11.20;;;1.58;;
51612;SDS011;37694;51.748;14.326;2022-10-01T14:19:16;12.45;;;1.67;;
51612;SDS011;37694;51.748;14.326;2022-10-01T14:26:58;8.20;;;1.55;;
51612;SDS011;37694;51.748;14.326;2022-10-01T14:32:21;4.18;;;1.52;;
51612;SDS011;37694;51.748;14.326;2022-10-01T14:37:35;8.35;;;1.70;;
51612;SDS011;37694;51.748;14.326;2022-10-01T14:40:13;9.57;;;1.77;;
51612;SDS011;37694;51.748;14.326;2022-10-01T14:42:42;7.95;;;1.48;;
51612;SDS011;37694;51.748;14.326;2022-10-01T14:45:14;15.85;;;1.67;;
51612;SDS011;37694;51.748;14.326;2022-10-01T14:47:41;4.88;;;1.98;;
51612;SDS011;37694;51.748;14.326;2022-10-01T14:50:07;9.88;;;2.25;;
51612;SDS011;37694;51.748;14.326;2022-10-01T14:52:34;10.20;;;1.50;;
51612;SDS011;37694;51.748;14.326;2022-10-01T14:55:10;12.25;;;2.25;;
51612;SDS011;37694;51.748;14.326;2022-10-01T14:57:38;12.43;;;2.05;;
51612;SDS011;37694;51.748;14.326;2022-10-01T15:00:24;7.90;;;1.60;;
51612;SDS011;37694;51.748;14.326;2022-10-01T15:03:13;11.45;;;2.08;;
51612;SDS011;37694;51.748;14.326;2022-10-01T15:05:42;8.70;;;1.80;;
51612;SDS011;37694;51.748;14.326;2022-10-01T15:08:13;8.85;;;2.03;;
51612;SDS011;37694;51.748;14.326;2022-10-01T15:10:52;7.00;;;1.80;;
51612;SDS011;37694;51.748;14.326;2022-10-01T15:13:26;4.72;;;1.40;;
51612;SDS011;37694;51.748;14.326;2022-10-01T15:16:03;7.60;;;1.92;;
51612;SDS011;37694;51.748;14.326;2022-10-01T15:18:29;11.60;;;2.42;;
51612;SDS011;37694;51.748;14.326;2022-10-01T15:20:59;6.78;;;1.70;;
51612;SDS011;37694;51.748;14.326;2022-10-01T15:25:56;14.88;;;2.03;;
51612;SDS011;37694;51.748;14.326;2022-10-01T15:28:30;16.10;;;2.28;;
51612;SDS011;37694;51.748;14.326;2022-10-01T15:30:58;11.75;;;2.40;;
51612;SDS011;37694;51.748;14.326;2022-10-01T15:33:35;9.48;;;2.42;;
51612;SDS011;37694;51.748;14.326;2022-10-01T15:36:04;15.98;;;3.13;;
51612;SDS011;37694;51.748;14.326;2022-10-01T15:38:37;8.43;;;2.42;;
51612;SDS011;37694;51.748;14.326;2022-10-01T15:41:05;7.30;;;2.88;;
51612;SDS011;37694;51.748;14.326;2022-10-01T15:43:35;15.00;;;3.78;;
51612;SDS011;37694;51.748;14.326;2022-10-01T15:48:31;18.52;;;3.70;;
51612;SDS011;37694;51.748;14.326;2022-10-01T15:51:01;23.70;;;3.80;;
51612;SDS011;37694;51.748;14.326;2022-10-01T15:53:29;26.02;;;4.53;;
51612;SDS011;37694;51.748;14.326;2022-10-01T15:55:58;54.85;;;8.00;;
51612;SDS011;37694;51.748;14.326;2022-10-01T15:58:32;59.65;;;11.43;;
51612;SDS011;37694;51.748;14.326;2022-10-01T16:01:04;77.50;;;12.68;;
51612;SDS011;37694;51.748;14.326;2022-10-01T16:03:34;86.73;;;13.10;;
51612;SDS011;37694;51.748;14.326;2022-10-01T16:06:05;90.43;;;14.02;;
51612;SDS011;37694;51.748;14.326;2022-10-01T16:14:35;61.40;;;10.45;;
51612;SDS011;37694;51.748;14.326;2022-10-01T16:19:46;62.75;;;11.52;;
51612;SDS011;37694;51.748;14.326;2022-10-01T16:22:28;52.05;;;10.00;;
51612;SDS011;37694;51.748;14.326;2022-10-01T16:24:59;79.80;;;11.70;;
51612;SDS011;37694;51.748;14.326;2022-10-01T16:27:29;57.65;;;11.68;;
51612;SDS011;37694;51.748;14.326;2022-10-01T16:32:32;75.18;;;11.80;;
51612;SDS011;37694;51.748;14.326;2022-10-01T16:35:12;58.08;;;10.98;;
51612;SDS011;37694;51.748;14.326;2022-10-01T16:37:46;47.03;;;11.70;;
51612;SDS011;37694;51.748;14.326;2022-10-01T16:40:14;42.33;;;10.63;;
51612;SDS011;37694;51.748;14.326;2022-10-01T16:42:44;49.92;;;10.38;;
51612;SDS011;37694;51.748;14.326;2022-10-01T16:45:13;55.45;;;10.45;;
51612;SDS011;37694;51.748;14.326;2022-10-01T16:47:42;44.00;;;10.77;;
51612;SDS011;37694;51.748;14.326;2022-10-01T16:50:09;44.92;;;10.63;;
51612;SDS011;37694;51.748;14.326;2022-10-01T16:52:37;38.00;;;10.27;;
51612;SDS011;37694;51.748;14.326;2022-10-01T16:55:05;42.30;;;9.45;;
51612;SDS011;37694;51.748;14.326;2022-10-01T16:57:46;43.22;;;9.93;;
51612;SDS011;37694;51.748;14.326;2022-10-01T17:00:13;46.40;;;10.65;;
51612;SDS011;37694;51.748;14.326;2022-10-01T17:02:40;40.00;;;9.80;;
51612;SDS011;37694;51.748;14.326;2022-10-01T17:05:11;41.20;;;9.35;;
51612;SDS011;37694;51.748;14.326;2022-10-01T17:07:41;45.20;;;9.55;;
51612;SDS011;37694;51.748;14.326;2022-10-01T17:10:08;39.33;;;8.98;;
51612;SDS011;37694;51.748;14.326;2022-10-01T17:12:34;32.45;;;9.68;;
51612;SDS011;37694;51.748;14.326;2022-10-01T17:15:01;31.98;;;9.32;;
51612;SDS011;37694;51.748;14.326;2022-10-01T17:17:26;31.25;;;9.55;;
51612;SDS011;37694;51.748;14.326;2022-10-01T17:19:52;39.38;;;8.70;;
51612;SDS011;37694;51.748;14.326;2022-10-01T17:22:17;31.38;;;8.00;;
51612;SDS011;37694;51.748;14.326;2022-10-01T17:24:44;30.58;;;9.82;;